LIMZ/CUF METAR and TAF weather

Enter ICAO airport designator
Station Type Date Time Source
LIMZ METAR 2020/07/12 17:50 UTC NOAA

LIMZ 121750Z 28003KT 9999 SCT060 24/17 Q1020


Station Type Date Time Source
LIMZ Decoded METAR 2020/07/12 17:50 UTC NOAA

Cuneo / Levaldigi, Italy (LIMZ) 44-32-47N 007-37-20E
Jul 12, 2020 - 01:50 PM EDT / 2020.07.12 1750 UTC
Wind: from the W (280 degrees) at 3 MPH (3 KT):0
Visibility: greater than 7 mile(s):0
Sky conditions: partly cloudy
Temperature: 75 F (24 C)
Dew Point: 62 F (17 C)
Relative Humidity: 64%
Pressure (altimeter): 30.12 in. Hg (1020 hPa)
ob: LIMZ 121750Z 28003KT 9999 SCT060 24/17 Q1020
cycle: 18

Station Type Date Time Source
LIMZ TAF 2020/07/12 18:21 UTC NOAA

TAF LIMZ 121700Z 1218/1318 VRB05KT 9999 SCT030
TEMPO 1315/1318 4000 SHRA

Example: see airport list